createdAt,value
2023-03-12T00:02:24.868Z,8.18
2023-03-12T00:04:54.730Z,6.85
2023-03-12T00:07:25.560Z,7.57
2023-03-12T00:09:55.251Z,7.20
2023-03-12T00:12:24.603Z,8.48
2023-03-12T00:14:54.341Z,8.60
2023-03-12T00:17:23.625Z,7.38
2023-03-12T00:19:54.115Z,7.40
2023-03-12T00:22:26.051Z,8.25
2023-03-12T00:24:57.041Z,6.15
2023-03-12T00:27:28.304Z,6.70
2023-03-12T00:29:58.401Z,9.60
2023-03-12T00:32:27.800Z,6.38
2023-03-12T00:34:58.260Z,5.45
2023-03-12T00:37:29.423Z,5.43
2023-03-12T00:39:59.491Z,6.68
2023-03-12T00:42:28.894Z,6.90
2023-03-12T00:44:58.611Z,4.75
2023-03-12T00:47:28.006Z,6.20
2023-03-12T00:49:57.663Z,4.32
2023-03-12T00:52:28.539Z,6.35
2023-03-12T00:54:59.185Z,5.28
2023-03-12T00:57:29.218Z,4.20
2023-03-12T00:59:59.087Z,6.32
2023-03-12T01:02:28.530Z,7.25
2023-03-12T01:04:58.351Z,4.72
2023-03-12T01:07:29.190Z,3.85
2023-03-12T01:09:59.243Z,6.20
2023-03-12T01:12:28.579Z,5.68
2023-03-12T01:14:58.297Z,3.60
2023-03-12T01:17:27.815Z,5.20
2023-03-12T01:19:57.941Z,4.78
2023-03-12T01:22:28.953Z,6.25
2023-03-12T01:24:58.627Z,5.68
2023-03-12T01:27:28.681Z,5.60
2023-03-12T01:29:59.004Z,4.18
2023-03-12T01:32:28.705Z,3.08
2023-03-12T01:35:00.547Z,5.47
2023-03-12T01:37:31.630Z,3.40
2023-03-12T01:40:01.667Z,5.30
2023-03-12T01:42:31.062Z,3.95
2023-03-12T01:45:03.268Z,3.42
2023-03-12T01:47:33.503Z,3.42
2023-03-12T01:50:04.876Z,4.30
2023-03-12T01:55:10.956Z,6.43
2023-03-12T01:57:45.886Z,3.28
2023-03-12T02:00:19.693Z,3.80
2023-03-12T02:02:50.259Z,4.70
2023-03-12T02:05:28.437Z,3.35
2023-03-12T02:08:00.004Z,3.47
2023-03-12T02:10:30.427Z,10.43
2023-03-12T02:12:59.904Z,2.17
2023-03-12T02:15:29.826Z,2.15
2023-03-12T02:17:59.463Z,5.70
2023-03-12T02:20:37.161Z,4.25
2023-03-12T02:23:11.102Z,2.95
2023-03-12T02:25:44.809Z,2.38
2023-03-12T02:28:16.679Z,4.70
2023-03-12T02:30:50.140Z,3.50
2023-03-12T02:33:19.879Z,3.40
2023-03-12T02:35:50.152Z,2.30
2023-03-12T02:38:40.363Z,1.40
2023-03-12T02:41:16.929Z,3.50
2023-03-12T02:43:48.485Z,4.13
2023-03-12T02:46:18.613Z,3.75
2023-03-12T02:48:48.226Z,3.50
2023-03-12T02:51:18.162Z,3.35
2023-03-12T02:53:47.827Z,9.20
2023-03-12T02:56:19.569Z,7.32
2023-03-12T02:58:49.277Z,1.38
2023-03-12T03:01:20.779Z,2.53
2023-03-12T03:03:50.379Z,4.65
2023-03-12T03:06:20.590Z,4.15
2023-03-12T03:08:49.966Z,1.95
2023-03-12T03:11:24.522Z,6.88
2023-03-12T03:13:54.082Z,1.88
2023-03-12T03:16:24.432Z,2.65
2023-03-12T03:18:54.517Z,1.17
2023-03-12T03:21:24.466Z,2.42
2023-03-12T03:23:54.000Z,4.32
2023-03-12T03:26:26.161Z,3.35
2023-03-12T03:28:55.598Z,0.75
2023-03-12T03:31:25.600Z,2.05
2023-03-12T03:33:55.272Z,2.63
2023-03-12T03:36:25.843Z,2.72
2023-03-12T03:38:55.301Z,3.80
2023-03-12T03:41:27.380Z,6.65
2023-03-12T03:43:59.801Z,3.88
2023-03-12T03:46:29.799Z,2.63
2023-03-12T03:48:59.937Z,2.28
2023-03-12T03:51:30.632Z,5.15
2023-03-12T03:54:02.142Z,2.15
2023-03-12T03:56:33.385Z,2.22
2023-03-12T03:59:03.344Z,5.53
2023-03-12T04:01:33.332Z,1.92
2023-03-12T04:04:02.839Z,4.95
2023-03-12T04:06:32.936Z,9.98
2023-03-12T04:09:03.099Z,2.92
2023-03-12T04:11:34.773Z,5.60
2023-03-12T04:14:04.223Z,2.20
2023-03-12T04:16:34.108Z,3.25
2023-03-12T04:19:03.613Z,7.90
2023-03-12T04:21:33.887Z,1.90
2023-03-12T04:24:03.368Z,1.92
2023-03-12T04:26:34.529Z,3.03
2023-03-12T04:29:04.215Z,3.92
2023-03-12T04:31:34.073Z,2.57
2023-03-12T04:34:03.642Z,6.88
2023-03-12T04:36:33.812Z,2.55
2023-03-12T04:39:07.338Z,3.65
2023-03-12T04:41:40.033Z,2.42
2023-03-12T04:44:12.248Z,3.30
2023-03-12T04:46:42.903Z,1.15
2023-03-12T04:49:12.782Z,2.38
2023-03-12T04:51:43.010Z,4.77
2023-03-12T04:54:13.046Z,5.15
2023-03-12T04:56:44.331Z,6.13
2023-03-12T04:59:13.817Z,1.67
2023-03-12T05:01:44.222Z,9.07
2023-03-12T05:04:13.750Z,3.27
2023-03-12T05:06:43.821Z,4.53
2023-03-12T05:09:13.322Z,4.28
2023-03-12T05:11:44.512Z,2.90
2023-03-12T05:14:14.054Z,5.18
2023-03-12T05:16:44.679Z,3.65
2023-03-12T05:19:14.801Z,5.93
2023-03-12T05:21:44.820Z,5.78
2023-03-12T05:24:14.826Z,9.48
2023-03-12T05:26:46.140Z,2.72
2023-03-12T05:31:45.432Z,1.40
2023-03-12T05:34:16.062Z,1.17
2023-03-12T05:36:46.121Z,2.65
2023-03-12T05:39:15.938Z,1.75
2023-03-12T05:41:47.323Z,2.35
2023-03-12T05:46:46.431Z,5.22
2023-03-12T05:49:15.840Z,3.47
2023-03-12T05:51:45.511Z,14.25
2023-03-12T05:54:15.335Z,1.25
2023-03-12T05:56:46.532Z,1.80
2023-03-12T05:59:16.031Z,7.85
2023-03-12T06:01:46.560Z,1.15
2023-03-12T06:04:16.031Z,1.50
2023-03-12T06:06:46.221Z,3.15
2023-03-12T06:09:15.564Z,3.53
2023-03-12T06:11:47.219Z,5.35
2023-03-12T06:14:16.520Z,1.95
2023-03-12T06:16:46.384Z,3.40
2023-03-12T06:19:15.953Z,1.70
2023-03-12T06:21:46.877Z,3.58
2023-03-12T06:24:16.728Z,2.72
2023-03-12T06:26:47.961Z,3.83
2023-03-12T06:29:17.279Z,3.28
2023-03-12T06:31:48.586Z,5.70
2023-03-12T06:36:47.735Z,9.63
2023-03-12T06:39:17.742Z,7.55
2023-03-12T06:41:48.963Z,1.50
2023-03-12T06:44:18.749Z,4.15
2023-03-12T06:46:48.543Z,3.42
2023-03-12T06:49:18.389Z,3.40
2023-03-12T06:51:48.454Z,6.35
2023-03-12T06:54:17.906Z,6.57
2023-03-12T06:56:49.157Z,3.35
2023-03-12T06:59:18.764Z,3.35
2023-03-12T07:01:48.758Z,3.70
2023-03-12T07:04:18.343Z,3.20
2023-03-12T07:06:50.782Z,6.75
2023-03-12T07:09:21.197Z,4.05
2023-03-12T07:11:53.235Z,5.18
2023-03-12T07:14:22.574Z,4.43
2023-03-12T07:16:52.238Z,4.63
2023-03-12T07:19:21.764Z,3.72
2023-03-12T07:21:51.586Z,3.97
2023-03-12T07:24:20.933Z,2.83
2023-03-12T07:26:52.593Z,1.20
2023-03-12T07:29:21.880Z,3.10
2023-03-12T07:31:52.051Z,4.78
2023-03-12T07:34:21.564Z,4.50
2023-03-12T07:36:51.436Z,7.55
2023-03-12T07:39:21.012Z,4.03
2023-03-12T07:41:52.152Z,3.15
2023-03-12T07:44:21.489Z,5.40
2023-03-12T07:46:51.580Z,5.35
2023-03-12T07:49:21.577Z,6.28
2023-03-12T07:51:51.231Z,4.03
2023-03-12T07:54:20.576Z,3.70
2023-03-12T07:56:52.610Z,8.32
2023-03-12T07:59:22.590Z,5.35
2023-03-12T08:01:52.637Z,4.30
2023-03-12T08:04:22.294Z,3.90
2023-03-12T08:06:52.061Z,2.55
2023-03-12T08:09:21.833Z,9.02
2023-03-12T08:11:53.091Z,5.70
2023-03-12T08:14:23.008Z,5.60
2023-03-12T08:16:52.788Z,6.10
2023-03-12T08:19:23.348Z,6.15
2023-03-12T08:21:53.561Z,2.40
2023-03-12T08:24:24.328Z,2.33
2023-03-12T08:26:56.341Z,3.97
2023-03-12T08:29:25.934Z,5.50
2023-03-12T08:32:04.565Z,5.60
2023-03-12T08:34:35.254Z,5.30
2023-03-12T08:37:05.141Z,3.67
2023-03-12T08:39:35.258Z,7.53
2023-03-12T08:42:08.001Z,2.78
2023-03-12T08:44:37.329Z,8.98
2023-03-12T08:47:07.181Z,9.98
2023-03-12T08:49:36.598Z,5.65
2023-03-12T08:52:06.955Z,4.28
2023-03-12T08:54:36.486Z,6.63
2023-03-12T08:57:07.744Z,5.30
2023-03-12T08:59:37.691Z,7.93
2023-03-12T09:02:07.999Z,4.25
2023-03-12T09:04:37.515Z,3.67
2023-03-12T09:07:07.867Z,2.92
2023-03-12T09:09:37.326Z,5.82
2023-03-12T09:12:09.062Z,4.68
2023-03-12T09:17:30.106Z,2.53
2023-03-12T09:22:30.514Z,7.38
2023-03-12T09:27:30.626Z,7.95
2023-03-12T09:30:01.254Z,4.70
2023-03-12T09:32:31.724Z,5.22
2023-03-12T09:35:01.110Z,9.50
2023-03-12T09:37:32.751Z,4.55
2023-03-12T09:40:02.649Z,3.22
2023-03-12T09:42:42.295Z,3.92
2023-03-12T09:45:18.318Z,6.53
2023-03-12T09:47:51.225Z,5.00
2023-03-12T09:50:27.181Z,4.15
2023-03-12T09:53:03.043Z,5.82
2023-03-12T09:55:38.711Z,2.85
2023-03-12T09:58:15.733Z,2.22
2023-03-12T10:00:47.541Z,3.55
2023-03-12T10:03:33.397Z,3.20
2023-03-12T10:06:13.221Z,1.98
2023-03-12T10:08:56.778Z,1.83
2023-03-12T10:11:36.826Z,6.13
2023-03-12T10:14:29.854Z,4.85
2023-03-12T10:17:12.671Z,5.53
2023-03-12T10:20:01.360Z,2.97
2023-03-12T10:22:48.241Z,5.45
2023-03-12T10:25:28.636Z,2.13
2023-03-12T10:28:04.402Z,3.83
2023-03-12T10:30:36.733Z,8.25
2023-03-12T10:33:11.962Z,6.38
2023-03-12T10:35:43.408Z,1.70
2023-03-12T10:40:43.741Z,5.18
2023-03-12T10:43:13.289Z,1.55
2023-03-12T10:45:50.415Z,4.68
2023-03-12T10:48:23.346Z,4.65
2023-03-12T10:51:04.826Z,4.10
2023-03-12T10:56:08.214Z,6.60
2023-03-12T10:58:39.623Z,6.13
2023-03-12T11:01:20.631Z,5.85
2023-03-12T11:03:51.529Z,3.55
2023-03-12T11:06:27.096Z,3.65
2023-03-12T11:09:16.910Z,3.78
2023-03-12T11:11:49.112Z,2.80
2023-03-12T11:14:20.703Z,4.75
2023-03-12T11:16:52.589Z,6.57
2023-03-12T11:19:32.779Z,2.35
2023-03-12T11:22:04.782Z,3.17
2023-03-12T11:24:34.119Z,2.42
2023-03-12T11:27:09.250Z,2.58
2023-03-12T11:29:42.039Z,5.35
2023-03-12T11:32:19.312Z,5.43
2023-03-12T11:34:50.179Z,1.55
2023-03-12T11:37:28.873Z,3.70
2023-03-12T11:40:15.347Z,2.70
2023-03-12T11:42:58.455Z,2.92
2023-03-12T11:45:38.328Z,4.00
2023-03-12T11:48:23.551Z,2.60
2023-03-12T11:51:12.225Z,6.00
2023-03-12T11:54:03.868Z,4.97
2023-03-12T11:56:38.283Z,3.35
2023-03-12T11:59:37.894Z,5.53
2023-03-12T12:02:24.808Z,6.18
2023-03-12T12:05:09.506Z,2.55
2023-03-12T12:07:55.354Z,1.92
2023-03-12T12:10:30.048Z,4.88
2023-03-12T12:13:12.539Z,4.55
2023-03-12T12:15:49.504Z,2.17
2023-03-12T12:18:46.971Z,2.95
2023-03-12T12:21:34.490Z,2.47
2023-03-12T12:24:13.006Z,2.10
2023-03-12T12:26:50.982Z,2.95
2023-03-12T12:29:30.725Z,6.32
2023-03-12T12:32:03.383Z,5.78
2023-03-12T12:34:57.000Z,2.80
2023-03-12T12:37:38.149Z,3.90
2023-03-12T12:40:17.896Z,2.28
2023-03-12T12:43:05.481Z,2.88
2023-03-12T12:45:34.901Z,2.15
2023-03-12T12:48:08.133Z,2.28
2023-03-12T12:50:41.616Z,1.58
2023-03-12T12:53:20.810Z,5.35
2023-03-12T12:55:57.480Z,2.17
2023-03-12T12:58:41.878Z,2.78
2023-03-12T13:01:12.289Z,5.88
2023-03-12T13:06:11.711Z,3.13
2023-03-12T13:09:02.765Z,3.77
2023-03-12T13:11:42.090Z,7.22
2023-03-12T13:14:18.078Z,7.05
2023-03-12T13:16:48.529Z,5.32
2023-03-12T13:19:28.685Z,5.20
2023-03-12T13:22:08.368Z,5.40
2023-03-12T13:24:52.170Z,2.80
2023-03-12T13:27:25.432Z,4.25
2023-03-12T13:29:57.545Z,2.13
2023-03-12T13:32:55.433Z,4.07
2023-03-12T13:35:34.313Z,6.25
2023-03-12T13:38:09.052Z,1.27
2023-03-12T13:41:02.783Z,2.42
2023-03-12T13:43:53.184Z,3.00
2023-03-12T13:46:43.033Z,5.10
2023-03-12T13:49:15.680Z,2.88
2023-03-12T13:52:01.557Z,4.15
2023-03-12T13:54:35.312Z,6.68
2023-03-12T13:57:13.914Z,6.80
2023-03-12T13:59:47.633Z,4.80
2023-03-12T14:02:26.055Z,3.50
2023-03-12T14:04:58.140Z,6.28
2023-03-12T14:08:12.839Z,4.13
2023-03-12T14:11:02.815Z,1.27
2023-03-12T14:13:45.589Z,3.40
2023-03-12T14:16:23.565Z,4.70
2023-03-12T14:18:54.929Z,1.55
2023-03-12T14:23:58.239Z,0.60
2023-03-12T14:26:29.711Z,2.88
2023-03-12T14:29:04.266Z,5.28
2023-03-12T14:31:34.157Z,6.00
2023-03-12T14:34:12.144Z,2.08
2023-03-12T14:36:46.333Z,4.07
2023-03-12T14:39:27.589Z,3.17
2023-03-12T14:44:32.262Z,4.75
2023-03-12T14:47:03.425Z,3.50
2023-03-12T14:49:33.861Z,3.97
2023-03-12T14:52:03.190Z,3.27
2023-03-12T14:54:33.389Z,5.05
2023-03-12T14:57:03.004Z,2.80
2023-03-12T14:59:38.392Z,3.60
2023-03-12T15:02:15.666Z,5.82
2023-03-12T15:04:47.227Z,4.95
2023-03-12T15:07:21.407Z,4.90
2023-03-12T15:09:53.363Z,3.80
2023-03-12T15:12:24.257Z,2.28
2023-03-12T15:15:03.181Z,4.25
2023-03-12T15:17:34.097Z,7.15
2023-03-12T15:20:09.596Z,1.95
2023-03-12T15:22:39.730Z,4.57
2023-03-12T15:25:24.073Z,2.10
2023-03-12T15:28:07.897Z,3.05
2023-03-12T15:30:41.124Z,5.75
2023-03-12T15:33:13.154Z,4.93
2023-03-12T15:35:45.571Z,4.35
2023-03-12T15:38:17.908Z,2.22
2023-03-12T15:40:51.584Z,3.40
2023-03-12T15:43:23.251Z,7.57
2023-03-12T15:46:01.857Z,4.32
2023-03-12T15:48:37.782Z,4.65
2023-03-12T15:51:17.611Z,3.40
2023-03-12T15:53:47.003Z,4.20
2023-03-12T15:56:24.649Z,4.43
2023-03-12T15:59:06.571Z,6.55
2023-03-12T16:01:51.747Z,6.93
2023-03-12T16:04:22.673Z,4.15
2023-03-12T16:06:53.690Z,6.35
2023-03-12T16:09:26.494Z,6.93
2023-03-12T16:11:57.308Z,5.60
2023-03-12T16:14:30.694Z,4.93
2023-03-12T16:17:02.005Z,4.57
2023-03-12T16:19:34.731Z,6.18
2023-03-12T16:22:04.999Z,6.03
2023-03-12T16:24:34.309Z,2.85
2023-03-12T16:27:07.369Z,8.27
2023-03-12T16:29:38.803Z,5.70
2023-03-12T16:32:15.672Z,4.80
2023-03-12T16:34:46.516Z,6.97
2023-03-12T16:37:16.876Z,9.27
2023-03-12T16:39:48.951Z,6.35
2023-03-12T16:42:20.835Z,5.85
2023-03-12T16:44:51.407Z,6.32
2023-03-12T16:47:22.626Z,5.22
2023-03-12T16:49:51.901Z,9.98
2023-03-12T16:52:24.242Z,8.05
2023-03-12T16:54:54.913Z,5.75
2023-03-12T16:59:57.687Z,8.00
2023-03-12T17:02:30.058Z,5.60
2023-03-12T17:04:59.767Z,9.13
2023-03-12T17:07:29.677Z,6.37
2023-03-12T17:09:59.620Z,7.25
2023-03-12T17:12:32.469Z,13.40
2023-03-12T17:15:03.395Z,16.10
2023-03-12T17:17:34.578Z,8.75
2023-03-12T17:20:08.196Z,9.65
2023-03-12T17:22:39.464Z,6.00
2023-03-12T17:25:10.468Z,11.93
2023-03-12T17:27:40.581Z,5.93
2023-03-12T17:30:11.550Z,10.07
2023-03-12T17:32:43.394Z,9.10
2023-03-12T17:37:43.705Z,7.43
2023-03-12T17:40:14.234Z,6.88
2023-03-12T17:42:44.305Z,7.63
2023-03-12T17:45:14.103Z,15.27
2023-03-12T17:47:47.523Z,14.97
2023-03-12T17:50:17.896Z,7.53
2023-03-12T17:52:48.024Z,13.75
2023-03-12T17:57:56.767Z,16.75
2023-03-12T18:00:26.499Z,14.07
2023-03-12T18:02:58.166Z,20.30
2023-03-12T18:05:28.045Z,10.52
2023-03-12T18:07:58.017Z,12.02
2023-03-12T18:10:27.361Z,16.65
2023-03-12T18:12:57.121Z,12.32
2023-03-12T18:15:26.451Z,12.18
2023-03-12T18:17:59.093Z,17.50
2023-03-12T18:20:37.786Z,15.05
2023-03-12T18:23:09.751Z,16.70
2023-03-12T18:25:39.916Z,14.95
2023-03-12T18:28:10.599Z,20.90
2023-03-12T18:30:40.214Z,18.98
2023-03-12T18:33:11.600Z,16.33
2023-03-12T18:38:10.270Z,20.15
2023-03-12T18:40:40.106Z,21.92
2023-03-12T18:43:10.205Z,22.75
2023-03-12T18:45:43.467Z,21.48
2023-03-12T18:48:14.773Z,23.30
2023-03-12T18:50:44.740Z,25.58
2023-03-12T18:53:14.497Z,27.77
2023-03-12T18:55:51.705Z,36.60
2023-03-12T18:58:21.945Z,28.17
2023-03-12T19:00:53.316Z,25.48
2023-03-12T19:03:25.582Z,23.65
2023-03-12T19:06:03.602Z,22.42
2023-03-12T19:08:33.551Z,18.10
2023-03-12T19:11:05.574Z,21.70
2023-03-12T19:13:35.798Z,25.02
2023-03-12T19:16:08.732Z,25.38
2023-03-12T19:18:40.992Z,28.02
2023-03-12T19:21:10.549Z,34.40
2023-03-12T19:23:43.770Z,38.30
2023-03-12T19:26:14.846Z,30.20
2023-03-12T19:28:45.052Z,30.73
2023-03-12T19:31:16.615Z,42.03
2023-03-12T19:33:47.809Z,42.17
2023-03-12T19:36:17.481Z,47.53
2023-03-12T19:38:47.611Z,45.05
2023-03-12T19:41:17.682Z,42.58
2023-03-12T19:43:47.577Z,36.75
2023-03-12T19:46:17.282Z,41.17
2023-03-12T19:48:48.566Z,39.72
2023-03-12T19:51:18.598Z,37.47
2023-03-12T19:53:50.899Z,41.47
2023-03-12T19:56:21.351Z,36.10
2023-03-12T20:01:21.700Z,35.78
2023-03-12T20:03:53.094Z,44.22
2023-03-12T20:06:22.547Z,36.20
2023-03-12T20:08:52.374Z,40.38
2023-03-12T20:11:21.737Z,43.42
2023-03-12T20:13:52.122Z,43.45
2023-03-12T20:16:21.492Z,41.47
2023-03-12T20:18:52.670Z,30.30
2023-03-12T20:21:22.005Z,38.28
2023-03-12T20:23:52.269Z,44.35
2023-03-12T20:26:21.974Z,42.22
2023-03-12T20:28:51.694Z,39.47
2023-03-12T20:31:21.225Z,39.38
2023-03-12T20:33:52.837Z,33.90
2023-03-12T20:36:22.250Z,27.15
2023-03-12T20:38:52.312Z,25.38
2023-03-12T20:41:21.861Z,29.13
2023-03-12T20:43:56.062Z,27.05
2023-03-12T20:46:25.671Z,34.03
2023-03-12T20:48:56.947Z,29.75
2023-03-12T20:51:26.975Z,31.38
2023-03-12T20:53:57.233Z,34.75
2023-03-12T20:56:26.562Z,28.60
2023-03-12T20:58:56.378Z,33.85
2023-03-12T21:01:25.709Z,36.88
2023-03-12T21:04:00.196Z,37.33
2023-03-12T21:06:29.736Z,30.88
2023-03-12T21:08:59.948Z,33.88
2023-03-12T21:11:31.545Z,37.20
2023-03-12T21:14:01.223Z,38.95
2023-03-12T21:16:30.552Z,42.78
2023-03-12T21:19:01.805Z,30.30
2023-03-12T21:21:31.102Z,34.80
2023-03-12T21:24:02.479Z,37.88
2023-03-12T21:26:32.065Z,44.28
2023-03-12T21:29:01.804Z,43.42
2023-03-12T21:31:31.813Z,38.28
2023-03-12T21:34:03.049Z,40.10
2023-03-12T21:36:33.103Z,35.60
2023-03-12T21:39:03.321Z,38.17
2023-03-12T21:41:32.668Z,32.92
2023-03-12T21:44:03.898Z,40.33
2023-03-12T21:49:04.292Z,37.58
2023-03-12T21:51:33.808Z,37.45
2023-03-12T21:54:03.798Z,36.22
2023-03-12T21:56:33.739Z,36.50
2023-03-12T21:59:04.134Z,35.75
2023-03-12T22:01:33.495Z,33.28
2023-03-12T22:04:05.887Z,34.53
2023-03-12T22:06:35.423Z,35.72
2023-03-12T22:09:05.241Z,30.35
2023-03-12T22:11:34.624Z,37.60
2023-03-12T22:14:04.433Z,44.17
2023-03-12T22:16:33.926Z,34.67
2023-03-12T22:19:06.505Z,39.33
2023-03-12T22:21:35.941Z,36.20
2023-03-12T22:24:05.953Z,30.85
2023-03-12T22:26:35.273Z,35.90
2023-03-12T22:29:05.488Z,36.40
2023-03-12T22:31:35.014Z,31.35
2023-03-12T22:34:06.317Z,32.45
2023-03-12T22:36:35.711Z,37.15
2023-03-12T22:39:06.045Z,38.60
2023-03-12T22:41:35.494Z,36.90
2023-03-12T22:44:07.542Z,36.40
2023-03-12T22:46:37.917Z,41.17
2023-03-12T22:49:09.518Z,33.40
2023-03-12T22:51:39.149Z,37.03
2023-03-12T22:54:08.812Z,41.08
2023-03-12T22:56:38.556Z,37.40
2023-03-12T22:59:08.622Z,39.13
2023-03-12T23:01:38.061Z,36.22
2023-03-12T23:04:09.457Z,33.40
2023-03-12T23:09:08.120Z,36.42
2023-03-12T23:11:38.346Z,44.78
2023-03-12T23:14:08.465Z,47.30
2023-03-12T23:16:37.789Z,39.58
2023-03-12T23:19:08.950Z,51.45
2023-03-12T23:21:38.281Z,41.05
2023-03-12T23:24:10.477Z,42.35
2023-03-12T23:26:40.158Z,40.07
2023-03-12T23:29:13.161Z,46.08
2023-03-12T23:31:42.599Z,38.55
2023-03-12T23:34:14.208Z,34.25
2023-03-12T23:36:44.774Z,40.10
2023-03-12T23:39:15.381Z,58.53
2023-03-12T23:41:44.877Z,51.53
2023-03-12T23:44:14.694Z,55.70
2023-03-12T23:46:45.286Z,47.78
2023-03-12T23:49:16.883Z,42.65
2023-03-12T23:51:46.939Z,51.25
2023-03-12T23:54:17.172Z,51.20
2023-03-12T23:56:46.835Z,57.17
2023-03-12T23:59:17.068Z,64.10
